Lumber City, Georgia
Current Conditions -  °F | °C
As of 5:35 AM on Thursday 23 Oct 2014 (Local Time) from KAZE Reporting Station
Clear Clear  
Wind Chill: 47°   Ceiling: Unl
Heat Index: 48°   Visibility: 10mi
Dew Point: 46°   Wind: 5mph
Humidity: 92%   Direction: 60°ENE
Pressure: 30.07"   Gusts: NA
Location:  31.93°N, 82.68°W
Report Text: KAZE 230935Z AUTO 06004KT 10SM CLR 09/08 A3007 RMK AO2 T00910078
Loading
Personal Weather Stations






























Interactive Weather Map
Tropical Storm Tracking
New forecast layout! Learn more

10-Day Weather Forecast

Advertisements
Track Severe Weather on mobile